sensor_id;sensor_type;location;lat;lon;timestamp;pressure;altitude;pressure_sealevel;temperature;humidity
22964;BME280;11648;49.306;6.934;2023-06-26T00:02:13;98309.75;;;25.33;42.89
22964;BME280;11648;49.306;6.934;2023-06-26T00:04:42;98305.13;;;25.22;42.59
22964;BME280;11648;49.306;6.934;2023-06-26T00:07:09;98302.81;;;25.18;42.24
22964;BME280;11648;49.306;6.934;2023-06-26T00:09:36;98294.72;;;25.18;42.17
22964;BME280;11648;49.306;6.934;2023-06-26T00:12:03;98292.22;;;25.15;42.33
22964;BME280;11648;49.306;6.934;2023-06-26T00:14:30;98293.22;;;25.14;42.09
22964;BME280;11648;49.306;6.934;2023-06-26T00:16:57;98287.19;;;25.10;42.01
22964;BME280;11648;49.306;6.934;2023-06-26T00:19:23;98286.97;;;25.13;41.81
22964;BME280;11648;49.306;6.934;2023-06-26T00:21:50;98283.31;;;25.14;41.79
22964;BME280;11648;49.306;6.934;2023-06-26T00:24:18;98290.41;;;25.15;41.68
22964;BME280;11648;49.306;6.934;2023-06-26T00:26:47;98288.47;;;25.17;41.90
22964;BME280;11648;49.306;6.934;2023-06-26T00:29:14;98294.19;;;25.13;41.87
22964;BME280;11648;49.306;6.934;2023-06-26T00:31:40;98294.09;;;25.14;42.37
22964;BME280;11648;49.306;6.934;2023-06-26T00:34:07;98294.81;;;25.16;42.54
22964;BME280;11648;49.306;6.934;2023-06-26T00:36:35;98304.97;;;25.13;42.40
22964;BME280;11648;49.306;6.934;2023-06-26T00:39:03;98293.53;;;25.09;42.59
22964;BME280;11648;49.306;6.934;2023-06-26T00:41:30;98294.09;;;25.01;42.81
22964;BME280;11648;49.306;6.934;2023-06-26T00:43:56;98296.91;;;25.00;43.30
22964;BME280;11648;49.306;6.934;2023-06-26T00:46:23;98303.50;;;24.96;43.31
22964;BME280;11648;49.306;6.934;2023-06-26T00:48:52;98300.56;;;24.86;43.89
22964;BME280;11648;49.306;6.934;2023-06-26T00:51:19;98305.81;;;24.75;44.47
22964;BME280;11648;49.306;6.934;2023-06-26T00:53:47;98299.50;;;24.64;44.89
22964;BME280;11648;49.306;6.934;2023-06-26T00:56:17;98303.59;;;24.56;44.88
22964;BME280;11648;49.306;6.934;2023-06-26T00:58:44;98297.97;;;24.47;45.01
22964;BME280;11648;49.306;6.934;2023-06-26T01:01:12;98301.94;;;24.41;45.00
22964;BME280;11648;49.306;6.934;2023-06-26T01:03:44;98298.50;;;24.39;44.86
22964;BME280;11648;49.306;6.934;2023-06-26T01:06:13;98299.03;;;24.32;44.99
22964;BME280;11648;49.306;6.934;2023-06-26T01:08:41;98309.03;;;24.30;44.61
22964;BME280;11648;49.306;6.934;2023-06-26T01:11:10;98303.88;;;24.27;44.76
22964;BME280;11648;49.306;6.934;2023-06-26T01:13:38;98302.13;;;24.26;44.76
22964;BME280;11648;49.306;6.934;2023-06-26T01:16:06;98312.47;;;24.19;45.58
22964;BME280;11648;49.306;6.934;2023-06-26T01:18:35;98311.44;;;24.07;45.75
22964;BME280;11648;49.306;6.934;2023-06-26T01:21:04;98307.75;;;23.96;45.80
22964;BME280;11648;49.306;6.934;2023-06-26T01:26:23;98303.13;;;23.98;46.20
22964;BME280;11648;49.306;6.934;2023-06-26T01:28:51;98312.81;;;24.00;46.22
22964;BME280;11648;49.306;6.934;2023-06-26T01:31:19;98295.81;;;24.00;46.63
22964;BME280;11648;49.306;6.934;2023-06-26T01:33:47;98301.09;;;24.01;46.34
22964;BME280;11648;49.306;6.934;2023-06-26T01:36:13;98304.09;;;23.97;46.61
22964;BME280;11648;49.306;6.934;2023-06-26T01:38:40;98303.34;;;23.95;46.20
22964;BME280;11648;49.306;6.934;2023-06-26T01:41:07;98293.75;;;23.91;46.30
22964;BME280;11648;49.306;6.934;2023-06-26T01:44:05;98298.91;;;23.94;46.23
22964;BME280;11648;49.306;6.934;2023-06-26T01:55:10;98300.44;;;23.71;46.36
22964;BME280;11648;49.306;6.934;2023-06-26T01:57:39;98295.19;;;23.70;46.91
22964;BME280;11648;49.306;6.934;2023-06-26T02:00:06;98299.06;;;23.78;46.19
22964;BME280;11648;49.306;6.934;2023-06-26T02:02:41;98290.34;;;23.75;45.97
22964;BME280;11648;49.306;6.934;2023-06-26T02:05:12;98286.84;;;23.74;45.94
22964;BME280;11648;49.306;6.934;2023-06-26T02:07:39;98280.25;;;23.78;45.46
22964;BME280;11648;49.306;6.934;2023-06-26T02:10:07;98285.13;;;23.86;45.24
22964;BME280;11648;49.306;6.934;2023-06-26T02:12:34;98294.06;;;23.86;45.47
22964;BME280;11648;49.306;6.934;2023-06-26T02:15:03;98288.03;;;23.83;45.21
22964;BME280;11648;49.306;6.934;2023-06-26T02:17:30;98285.47;;;23.94;45.68
22964;BME280;11648;49.306;6.934;2023-06-26T02:19:57;98290.63;;;23.97;44.67
22964;BME280;11648;49.306;6.934;2023-06-26T02:22:24;98292.59;;;23.95;45.65
22964;BME280;11648;49.306;6.934;2023-06-26T02:24:51;98288.28;;;23.92;46.35
22964;BME280;11648;49.306;6.934;2023-06-26T02:27:18;98299.22;;;23.89;45.86
22964;BME280;11648;49.306;6.934;2023-06-26T02:29:44;98291.66;;;23.82;46.80
22964;BME280;11648;49.306;6.934;2023-06-26T02:32:11;98283.06;;;23.77;47.20
22964;BME280;11648;49.306;6.934;2023-06-26T02:34:38;98288.00;;;23.70;47.63
22964;BME280;11648;49.306;6.934;2023-06-26T02:37:04;98291.84;;;23.66;47.17
22964;BME280;11648;49.306;6.934;2023-06-26T02:39:34;98282.75;;;23.54;47.72
22964;BME280;11648;49.306;6.934;2023-06-26T02:42:01;98285.66;;;23.51;47.69
22964;BME280;11648;49.306;6.934;2023-06-26T02:44:28;98284.22;;;23.46;48.20
22964;BME280;11648;49.306;6.934;2023-06-26T02:46:55;98278.66;;;23.49;47.90
22964;BME280;11648;49.306;6.934;2023-06-26T02:49:21;98280.56;;;23.47;47.70
22964;BME280;11648;49.306;6.934;2023-06-26T02:51:49;98284.59;;;23.40;48.11
22964;BME280;11648;49.306;6.934;2023-06-26T02:54:34;98284.13;;;23.33;48.69
22964;BME280;11648;49.306;6.934;2023-06-26T02:57:03;98283.41;;;23.31;48.54
22964;BME280;11648;49.306;6.934;2023-06-26T02:59:32;98283.09;;;23.22;49.16
22964;BME280;11648;49.306;6.934;2023-06-26T03:01:59;98284.66;;;23.11;49.33
22964;BME280;11648;49.306;6.934;2023-06-26T03:04:34;98295.81;;;23.05;48.87
22964;BME280;11648;49.306;6.934;2023-06-26T03:07:07;98299.53;;;23.03;49.19
22964;BME280;11648;49.306;6.934;2023-06-26T03:09:34;98298.38;;;23.07;49.37
22964;BME280;11648;49.306;6.934;2023-06-26T03:12:00;98303.09;;;23.03;48.85
22964;BME280;11648;49.306;6.934;2023-06-26T03:14:27;98300.19;;;23.06;49.03
22964;BME280;11648;49.306;6.934;2023-06-26T03:16:55;98304.16;;;23.01;49.36
22964;BME280;11648;49.306;6.934;2023-06-26T03:19:26;98304.56;;;22.95;49.71
22964;BME280;11648;49.306;6.934;2023-06-26T03:22:17;98299.66;;;22.87;49.69
22964;BME280;11648;49.306;6.934;2023-06-26T03:24:44;98297.72;;;22.75;50.01
22964;BME280;11648;49.306;6.934;2023-06-26T03:27:12;98296.31;;;22.70;50.45
22964;BME280;11648;49.306;6.934;2023-06-26T03:29:39;98304.16;;;22.73;50.30
22964;BME280;11648;49.306;6.934;2023-06-26T03:32:07;98307.03;;;22.70;50.72
22964;BME280;11648;49.306;6.934;2023-06-26T03:34:34;98300.81;;;22.69;50.30
22964;BME280;11648;49.306;6.934;2023-06-26T03:37:01;98293.94;;;22.63;50.97
22964;BME280;11648;49.306;6.934;2023-06-26T03:39:28;98292.41;;;22.59;51.03
22964;BME280;11648;49.306;6.934;2023-06-26T03:41:56;98303.66;;;22.52;50.95
22964;BME280;11648;49.306;6.934;2023-06-26T03:44:27;98301.53;;;22.57;50.87
22964;BME280;11648;49.306;6.934;2023-06-26T03:46:54;98296.06;;;22.58;51.14
22964;BME280;11648;49.306;6.934;2023-06-26T03:49:22;98302.31;;;22.59;50.89
22964;BME280;11648;49.306;6.934;2023-06-26T03:51:51;98301.06;;;22.64;51.35
22964;BME280;11648;49.306;6.934;2023-06-26T03:54:17;98307.91;;;22.70;50.77
22964;BME280;11648;49.306;6.934;2023-06-26T03:56:44;98313.63;;;22.78;50.87
22964;BME280;11648;49.306;6.934;2023-06-26T03:59:11;98317.88;;;22.82;50.64
22964;BME280;11648;49.306;6.934;2023-06-26T04:01:38;98316.91;;;22.83;50.81
22964;BME280;11648;49.306;6.934;2023-06-26T04:04:05;98322.94;;;22.87;50.89
22964;BME280;11648;49.306;6.934;2023-06-26T04:06:32;98334.09;;;22.81;51.07
22964;BME280;11648;49.306;6.934;2023-06-26T04:09:00;98328.13;;;22.76;51.07
22964;BME280;11648;49.306;6.934;2023-06-26T04:11:26;98331.19;;;22.70;51.19
22964;BME280;11648;49.306;6.934;2023-06-26T04:13:54;98330.75;;;22.61;51.15
22964;BME280;11648;49.306;6.934;2023-06-26T04:16:21;98330.63;;;22.49;51.52
22964;BME280;11648;49.306;6.934;2023-06-26T04:18:52;98340.66;;;22.31;52.58
22964;BME280;11648;49.306;6.934;2023-06-26T04:21:19;98336.84;;;22.35;52.65
22964;BME280;11648;49.306;6.934;2023-06-26T04:23:46;98332.16;;;22.39;51.94
22964;BME280;11648;49.306;6.934;2023-06-26T04:26:14;98340.13;;;22.40;51.95
22964;BME280;11648;49.306;6.934;2023-06-26T04:28:41;98333.03;;;22.39;51.62
22964;BME280;11648;49.306;6.934;2023-06-26T04:31:09;98332.97;;;22.55;51.62
22964;BME280;11648;49.306;6.934;2023-06-26T04:33:37;98330.34;;;22.69;50.85
22964;BME280;11648;49.306;6.934;2023-06-26T04:36:08;98332.22;;;22.81;50.40
22964;BME280;11648;49.306;6.934;2023-06-26T04:38:35;98339.34;;;22.96;50.49
22964;BME280;11648;49.306;6.934;2023-06-26T04:41:02;98336.09;;;23.05;50.60
22964;BME280;11648;49.306;6.934;2023-06-26T04:43:29;98343.84;;;23.10;50.60
22964;BME280;11648;49.306;6.934;2023-06-26T04:45:56;98336.06;;;23.20;50.13
22964;BME280;11648;49.306;6.934;2023-06-26T04:48:23;98333.56;;;23.31;50.39
22964;BME280;11648;49.306;6.934;2023-06-26T04:50:49;98343.16;;;23.49;49.94
22964;BME280;11648;49.306;6.934;2023-06-26T04:53:21;98346.84;;;23.60;49.32
22964;BME280;11648;49.306;6.934;2023-06-26T04:55:52;98347.50;;;23.64;49.59
22964;BME280;11648;49.306;6.934;2023-06-26T04:58:19;98345.84;;;23.76;49.48
22964;BME280;11648;49.306;6.934;2023-06-26T05:00:46;98353.22;;;23.86;49.31
22964;BME280;11648;49.306;6.934;2023-06-26T05:03:14;98343.78;;;23.93;49.05
22964;BME280;11648;49.306;6.934;2023-06-26T05:05:44;98343.25;;;24.01;48.76
22964;BME280;11648;49.306;6.934;2023-06-26T05:08:18;98343.66;;;24.22;48.54
22964;BME280;11648;49.306;6.934;2023-06-26T05:10:45;98340.81;;;24.37;48.13
22964;BME280;11648;49.306;6.934;2023-06-26T05:13:12;98349.22;;;24.45;47.64
22964;BME280;11648;49.306;6.934;2023-06-26T05:15:41;98343.06;;;24.43;48.46
22964;BME280;11648;49.306;6.934;2023-06-26T05:18:08;98340.94;;;24.61;48.70
22964;BME280;11648;49.306;6.934;2023-06-26T05:20:36;98343.19;;;24.80;48.07
22964;BME280;11648;49.306;6.934;2023-06-26T05:23:03;98344.94;;;25.06;47.51
22964;BME280;11648;49.306;6.934;2023-06-26T05:25:31;98347.47;;;25.33;46.47
22964;BME280;11648;49.306;6.934;2023-06-26T05:27:58;98344.63;;;25.47;46.15
22964;BME280;11648;49.306;6.934;2023-06-26T05:30:25;98351.47;;;25.52;46.09
22964;BME280;11648;49.306;6.934;2023-06-26T05:32:53;98355.13;;;25.51;46.78
22964;BME280;11648;49.306;6.934;2023-06-26T05:35:21;98360.53;;;25.39;46.53
22964;BME280;11648;49.306;6.934;2023-06-26T05:37:49;98366.19;;;25.47;46.58
22964;BME280;11648;49.306;6.934;2023-06-26T05:40:17;98367.59;;;25.03;46.99
22964;BME280;11648;49.306;6.934;2023-06-26T05:42:45;98362.03;;;25.30;46.36
22964;BME280;11648;49.306;6.934;2023-06-26T05:45:12;98367.28;;;25.44;46.32
22964;BME280;11648;49.306;6.934;2023-06-26T05:47:39;98373.06;;;25.27;47.21
22964;BME280;11648;49.306;6.934;2023-06-26T05:50:07;98374.44;;;25.33;47.24
22964;BME280;11648;49.306;6.934;2023-06-26T05:52:34;98381.34;;;25.12;47.43
22964;BME280;11648;49.306;6.934;2023-06-26T05:55:02;98385.19;;;25.45;47.00
22964;BME280;11648;49.306;6.934;2023-06-26T05:57:30;98394.38;;;25.55;47.00
22964;BME280;11648;49.306;6.934;2023-06-26T05:59:57;98392.22;;;25.61;46.78
22964;BME280;11648;49.306;6.934;2023-06-26T06:02:24;98390.47;;;25.47;47.50
22964;BME280;11648;49.306;6.934;2023-06-26T06:04:51;98396.59;;;25.98;46.52
22964;BME280;11648;49.306;6.934;2023-06-26T06:07:17;98387.84;;;26.07;46.37
22964;BME280;11648;49.306;6.934;2023-06-26T06:09:44;98399.84;;;26.03;46.86
22964;BME280;11648;49.306;6.934;2023-06-26T06:12:11;98388.03;;;25.80;47.57
22964;BME280;11648;49.306;6.934;2023-06-26T06:14:38;98397.06;;;26.16;47.31
22964;BME280;11648;49.306;6.934;2023-06-26T06:17:04;98391.50;;;26.06;47.05
22964;BME280;11648;49.306;6.934;2023-06-26T06:19:31;98399.94;;;25.78;47.76
22964;BME280;11648;49.306;6.934;2023-06-26T06:21:58;98401.06;;;26.23;47.29
22964;BME280;11648;49.306;6.934;2023-06-26T06:24:24;98412.69;;;26.36;47.21
22964;BME280;11648;49.306;6.934;2023-06-26T06:26:51;98407.72;;;26.53;46.71
22964;BME280;11648;49.306;6.934;2023-06-26T06:29:18;98408.81;;;26.62;46.46
22964;BME280;11648;49.306;6.934;2023-06-26T06:31:46;98405.69;;;27.14;45.55
22964;BME280;11648;49.306;6.934;2023-06-26T06:34:13;98410.13;;;27.26;45.29
22964;BME280;11648;49.306;6.934;2023-06-26T06:36:40;98403.34;;;27.32;45.06
22964;BME280;11648;49.306;6.934;2023-06-26T06:39:06;98419.13;;;27.60;44.94
22964;BME280;11648;49.306;6.934;2023-06-26T06:41:33;98424.63;;;27.70;45.05
22964;BME280;11648;49.306;6.934;2023-06-26T06:44:05;98430.94;;;27.48;44.84
22964;BME280;11648;49.306;6.934;2023-06-26T06:46:32;98421.91;;;27.70;44.32
22964;BME280;11648;49.306;6.934;2023-06-26T06:48:58;98434.84;;;27.77;44.85
22964;BME280;11648;49.306;6.934;2023-06-26T06:51:26;98430.81;;;28.37;43.60
22964;BME280;11648;49.306;6.934;2023-06-26T06:53:53;98435.78;;;28.53;43.27
22964;BME280;11648;49.306;6.934;2023-06-26T06:56:20;98426.06;;;27.96;43.63
22964;BME280;11648;49.306;6.934;2023-06-26T06:58:46;98426.31;;;28.04;43.11
22964;BME280;11648;49.306;6.934;2023-06-26T07:01:13;98427.34;;;28.35;42.55
22964;BME280;11648;49.306;6.934;2023-06-26T07:03:40;98429.56;;;28.41;42.42
22964;BME280;11648;49.306;6.934;2023-06-26T07:06:08;98423.94;;;28.33;42.57
22964;BME280;11648;49.306;6.934;2023-06-26T07:08:34;98434.25;;;28.71;41.75
22964;BME280;11648;49.306;6.934;2023-06-26T07:11:01;98429.53;;;29.05;41.36
22964;BME280;11648;49.306;6.934;2023-06-26T07:13:29;98416.75;;;29.37;39.40
22964;BME280;11648;49.306;6.934;2023-06-26T07:15:56;98427.88;;;29.13;39.34
22964;BME280;11648;49.306;6.934;2023-06-26T07:18:23;98427.38;;;29.50;39.24
22964;BME280;11648;49.306;6.934;2023-06-26T07:20:50;98418.19;;;30.11;38.27
22964;BME280;11648;49.306;6.934;2023-06-26T07:23:16;98417.91;;;30.14;37.51
22964;BME280;11648;49.306;6.934;2023-06-26T07:25:43;98419.50;;;29.47;37.53
22964;BME280;11648;49.306;6.934;2023-06-26T07:28:11;98411.47;;;29.15;38.06
22964;BME280;11648;49.306;6.934;2023-06-26T07:30:38;98426.91;;;28.62;39.50
22964;BME280;11648;49.306;6.934;2023-06-26T07:33:05;98433.16;;;28.94;39.19
22964;BME280;11648;49.306;6.934;2023-06-26T07:35:33;98430.34;;;29.47;37.79
22964;BME280;11648;49.306;6.934;2023-06-26T07:38:00;98429.34;;;29.38;37.79
22964;BME280;11648;49.306;6.934;2023-06-26T07:40:27;98437.69;;;29.86;37.95
22964;BME280;11648;49.306;6.934;2023-06-26T07:42:53;98437.00;;;29.94;37.78
22964;BME280;11648;49.306;6.934;2023-06-26T07:45:20;98432.44;;;30.63;36.56
22964;BME280;11648;49.306;6.934;2023-06-26T07:47:49;98442.09;;;30.27;37.03
22964;BME280;11648;49.306;6.934;2023-06-26T07:50:15;98441.75;;;30.11;37.38
22964;BME280;11648;49.306;6.934;2023-06-26T07:52:48;98434.13;;;30.83;36.66
22964;BME280;11648;49.306;6.934;2023-06-26T07:55:15;98430.41;;;31.13;35.89
22964;BME280;11648;49.306;6.934;2023-06-26T07:57:41;98433.44;;;31.10;35.48
22964;BME280;11648;49.306;6.934;2023-06-26T08:00:09;98435.94;;;31.40;35.43
22964;BME280;11648;49.306;6.934;2023-06-26T08:02:41;98435.22;;;31.57;34.73
22964;BME280;11648;49.306;6.934;2023-06-26T08:05:08;98430.34;;;32.15;33.50
22964;BME280;11648;49.306;6.934;2023-06-26T08:07:35;98435.03;;;31.68;33.13
22964;BME280;11648;49.306;6.934;2023-06-26T08:10:02;98428.34;;;31.53;33.08
22964;BME280;11648;49.306;6.934;2023-06-26T08:12:29;98436.22;;;31.47;32.36
22964;BME280;11648;49.306;6.934;2023-06-26T08:14:55;98437.53;;;31.33;32.43
22964;BME280;11648;49.306;6.934;2023-06-26T08:17:22;98433.19;;;31.50;32.07
22964;BME280;11648;49.306;6.934;2023-06-26T08:19:49;98437.81;;;32.13;32.28
22964;BME280;11648;49.306;6.934;2023-06-26T08:22:16;98439.06;;;31.45;32.11
22964;BME280;11648;49.306;6.934;2023-06-26T08:24:42;98444.50;;;31.64;31.49
22964;BME280;11648;49.306;6.934;2023-06-26T08:27:09;98436.28;;;32.11;30.53
22964;BME280;11648;49.306;6.934;2023-06-26T08:29:36;98442.28;;;31.77;31.21
22964;BME280;11648;49.306;6.934;2023-06-26T08:32:03;98442.34;;;31.58;31.20
22964;BME280;11648;49.306;6.934;2023-06-26T08:34:30;98436.13;;;32.30;30.69
22964;BME280;11648;49.306;6.934;2023-06-26T08:36:56;98431.75;;;32.19;30.58
22964;BME280;11648;49.306;6.934;2023-06-26T08:39:23;98423.47;;;32.56;28.81
22964;BME280;11648;49.306;6.934;2023-06-26T08:41:50;98423.31;;;32.40;29.42
22964;BME280;11648;49.306;6.934;2023-06-26T08:44:17;98424.97;;;32.86;28.44
22964;BME280;11648;49.306;6.934;2023-06-26T08:46:45;98425.25;;;31.75;27.53
22964;BME280;11648;49.306;6.934;2023-06-26T08:49:20;98424.19;;;32.13;27.12
22964;BME280;11648;49.306;6.934;2023-06-26T08:51:59;98422.06;;;32.35;26.81
22964;BME280;11648;49.306;6.934;2023-06-26T08:54:33;98419.09;;;33.16;25.49
22964;BME280;11648;49.306;6.934;2023-06-26T08:57:01;98426.50;;;33.75;26.17
22964;BME280;11648;49.306;6.934;2023-06-26T08:59:28;98421.81;;;34.44;25.41
22964;BME280;11648;49.306;6.934;2023-06-26T09:01:55;98425.41;;;34.60;25.44
22964;BME280;11648;49.306;6.934;2023-06-26T09:04:22;98433.53;;;34.28;26.14
22964;BME280;11648;49.306;6.934;2023-06-26T09:06:49;98436.19;;;33.70;27.27
22964;BME280;11648;49.306;6.934;2023-06-26T09:09:16;98440.59;;;33.97;27.20
22964;BME280;11648;49.306;6.934;2023-06-26T09:11:42;98446.81;;;33.81;27.76
22964;BME280;11648;49.306;6.934;2023-06-26T09:14:09;98450.78;;;34.20;27.21
22964;BME280;11648;49.306;6.934;2023-06-26T09:16:42;98440.03;;;34.19;26.63
22964;BME280;11648;49.306;6.934;2023-06-26T09:19:11;98444.25;;;33.54;26.74
22964;BME280;11648;49.306;6.934;2023-06-26T09:21:39;98450.34;;;34.07;26.89
22964;BME280;11648;49.306;6.934;2023-06-26T09:24:07;98443.06;;;35.39;25.52
22964;BME280;11648;49.306;6.934;2023-06-26T09:26:38;98439.75;;;35.84;24.53
22964;BME280;11648;49.306;6.934;2023-06-26T09:29:06;98454.38;;;35.52;25.16
22964;BME280;11648;49.306;6.934;2023-06-26T09:31:38;98451.97;;;35.00;25.67
22964;BME280;11648;49.306;6.934;2023-06-26T09:34:08;98467.34;;;34.69;26.12
22964;BME280;11648;49.306;6.934;2023-06-26T09:36:37;98454.22;;;35.21;25.55
22964;BME280;11648;49.306;6.934;2023-06-26T09:39:07;98451.50;;;36.08;24.74
22964;BME280;11648;49.306;6.934;2023-06-26T09:41:35;98459.22;;;36.05;24.67
22964;BME280;11648;49.306;6.934;2023-06-26T09:44:02;98453.06;;;36.03;24.77
22964;BME280;11648;49.306;6.934;2023-06-26T09:46:30;98460.66;;;35.85;24.86
22964;BME280;11648;49.306;6.934;2023-06-26T09:49:03;98462.34;;;35.86;24.72
22964;BME280;11648;49.306;6.934;2023-06-26T09:51:31;98457.28;;;36.52;24.19
22964;BME280;11648;49.306;6.934;2023-06-26T09:54:03;98470.09;;;35.58;25.33
22964;BME280;11648;49.306;6.934;2023-06-26T09:56:31;98456.41;;;35.74;25.03
22964;BME280;11648;49.306;6.934;2023-06-26T09:59:03;98460.78;;;35.99;25.11
22964;BME280;11648;49.306;6.934;2023-06-26T10:01:32;98451.94;;;35.81;25.20
22964;BME280;11648;49.306;6.934;2023-06-26T10:03:59;98461.16;;;34.59;26.43
22964;BME280;11648;49.306;6.934;2023-06-26T10:06:42;98456.09;;;35.20;26.13
22964;BME280;11648;49.306;6.934;2023-06-26T10:09:14;98439.94;;;36.83;24.85
22964;BME280;11648;49.306;6.934;2023-06-26T10:11:55;98464.31;;;36.24;25.03
22964;BME280;11648;49.306;6.934;2023-06-26T10:14:26;98444.03;;;35.78;25.21
22964;BME280;11648;49.306;6.934;2023-06-26T10:16:57;98464.97;;;34.90;26.49
22964;BME280;11648;49.306;6.934;2023-06-26T10:19:26;98446.38;;;36.05;25.90
22964;BME280;11648;49.306;6.934;2023-06-26T10:21:54;98450.34;;;37.33;24.94
22964;BME280;11648;49.306;6.934;2023-06-26T10:24:22;98451.53;;;37.38;24.33
22964;BME280;11648;49.306;6.934;2023-06-26T10:26:52;98454.38;;;36.07;24.53
22964;BME280;11648;49.306;6.934;2023-06-26T10:29:20;98460.44;;;35.94;25.02
22964;BME280;11648;49.306;6.934;2023-06-26T10:31:51;98454.47;;;36.91;23.24
22964;BME280;11648;49.306;6.934;2023-06-26T10:34:19;98456.16;;;37.38;22.88
22964;BME280;11648;49.306;6.934;2023-06-26T10:36:47;98466.31;;;37.15;22.80
22964;BME280;11648;49.306;6.934;2023-06-26T10:39:14;98464.81;;;37.12;22.84
22964;BME280;11648;49.306;6.934;2023-06-26T10:41:41;98469.97;;;37.30;22.14
22964;BME280;11648;49.306;6.934;2023-06-26T10:44:40;98470.38;;;37.41;22.31
22964;BME280;11648;49.306;6.934;2023-06-26T10:47:07;98475.09;;;38.58;20.74
22964;BME280;11648;49.306;6.934;2023-06-26T10:49:37;98474.50;;;39.20;19.96
22964;BME280;11648;49.306;6.934;2023-06-26T10:52:06;98474.34;;;38.49;20.46
22964;BME280;11648;49.306;6.934;2023-06-26T10:54:33;98476.50;;;39.05;19.67
22964;BME280;11648;49.306;6.934;2023-06-26T10:57:01;98480.31;;;37.80;20.03
22964;BME280;11648;49.306;6.934;2023-06-26T10:59:30;98469.34;;;37.94;19.91
22964;BME280;11648;49.306;6.934;2023-06-26T11:01:59;98475.00;;;37.64;19.55
22964;BME280;11648;49.306;6.934;2023-06-26T11:07:21;98483.88;;;36.05;21.66
22964;BME280;11648;49.306;6.934;2023-06-26T11:17:35;98480.84;;;41.53;16.14
22964;BME280;11648;49.306;6.934;2023-06-26T11:20:05;98479.00;;;39.48;15.86
22964;BME280;11648;49.306;6.934;2023-06-26T11:22:34;98479.19;;;40.78;15.45
22964;BME280;11648;49.306;6.934;2023-06-26T11:25:02;98466.94;;;42.12;15.12
22964;BME280;11648;49.306;6.934;2023-06-26T11:27:31;98478.50;;;42.98;15.18
22964;BME280;11648;49.306;6.934;2023-06-26T11:29:59;98489.63;;;40.82;16.61
22964;BME280;11648;49.306;6.934;2023-06-26T11:32:26;98490.84;;;41.40;16.13
22964;BME280;11648;49.306;6.934;2023-06-26T11:34:54;98487.22;;;41.47;15.80
22964;BME280;11648;49.306;6.934;2023-06-26T11:37:21;98496.56;;;41.39;16.02
22964;BME280;11648;49.306;6.934;2023-06-26T11:39:49;98500.78;;;41.22;15.14
22964;BME280;11648;49.306;6.934;2023-06-26T11:42:16;98495.72;;;40.71;16.89
22964;BME280;11648;49.306;6.934;2023-06-26T11:44:43;98495.72;;;41.98;16.04
22964;BME280;11648;49.306;6.934;2023-06-26T11:47:14;98479.47;;;41.03;16.44
22964;BME280;11648;49.306;6.934;2023-06-26T11:49:43;98493.31;;;41.09;16.79
22964;BME280;11648;49.306;6.934;2023-06-26T11:52:10;98492.75;;;41.66;15.94
22964;BME280;11648;49.306;6.934;2023-06-26T11:54:37;98490.13;;;42.11;15.14
22964;BME280;11648;49.306;6.934;2023-06-26T11:57:04;98488.28;;;41.59;15.54
22964;BME280;11648;49.306;6.934;2023-06-26T11:59:38;98508.06;;;40.69;16.56
22964;BME280;11648;49.306;6.934;2023-06-26T12:02:15;98501.63;;;41.29;16.15
22964;BME280;11648;49.306;6.934;2023-06-26T12:04:43;98487.03;;;40.27;15.20
22964;BME280;11648;49.306;6.934;2023-06-26T12:07:12;98487.78;;;39.80;16.43
22964;BME280;11648;49.306;6.934;2023-06-26T12:09:41;98494.91;;;39.46;17.69
22964;BME280;11648;49.306;6.934;2023-06-26T12:12:10;98496.28;;;39.85;17.69
22964;BME280;11648;49.306;6.934;2023-06-26T12:14:37;98489.19;;;38.70;18.37
22964;BME280;11648;49.306;6.934;2023-06-26T12:17:09;98504.31;;;38.59;18.03
22964;BME280;11648;49.306;6.934;2023-06-26T12:19:38;98502.06;;;37.52;18.88
22964;BME280;11648;49.306;6.934;2023-06-26T12:22:06;98508.09;;;36.40;19.45
22964;BME280;11648;49.306;6.934;2023-06-26T12:24:37;98502.78;;;37.46;18.67
22964;BME280;11648;49.306;6.934;2023-06-26T12:27:11;98509.47;;;36.75;18.87
22964;BME280;11648;49.306;6.934;2023-06-26T12:29:45;98504.94;;;36.04;19.17
22964;BME280;11648;49.306;6.934;2023-06-26T12:32:14;98503.28;;;36.81;18.83
22964;BME280;11648;49.306;6.934;2023-06-26T12:34:41;98505.16;;;36.81;20.07
22964;BME280;11648;49.306;6.934;2023-06-26T12:37:09;98503.44;;;36.80;19.80
22964;BME280;11648;49.306;6.934;2023-06-26T12:39:53;98510.84;;;35.53;20.55
22964;BME280;11648;49.306;6.934;2023-06-26T12:42:25;98530.47;;;35.00;20.70
22964;BME280;11648;49.306;6.934;2023-06-26T12:44:53;98532.56;;;34.48;21.78
22964;BME280;11648;49.306;6.934;2023-06-26T12:47:27;98519.75;;;34.48;21.49
22964;BME280;11648;49.306;6.934;2023-06-26T12:49:54;98526.38;;;34.46;21.40
22964;BME280;11648;49.306;6.934;2023-06-26T12:52:21;98534.34;;;34.65;22.01
22964;BME280;11648;49.306;6.934;2023-06-26T12:54:53;98524.97;;;34.34;21.86
22964;BME280;11648;49.306;6.934;2023-06-26T12:57:20;98522.94;;;34.86;21.94
22964;BME280;11648;49.306;6.934;2023-06-26T12:59:46;98524.91;;;34.59;22.35
22964;BME280;11648;49.306;6.934;2023-06-26T13:02:13;98525.84;;;34.92;21.47
22964;BME280;11648;49.306;6.934;2023-06-26T13:04:41;98535.84;;;35.34;21.13
22964;BME280;11648;49.306;6.934;2023-06-26T13:07:08;98524.03;;;35.33;21.17
22964;BME280;11648;49.306;6.934;2023-06-26T13:09:35;98519.91;;;35.05;20.16
22964;BME280;11648;49.306;6.934;2023-06-26T13:12:04;98523.63;;;34.88;19.80
22964;BME280;11648;49.306;6.934;2023-06-26T13:14:32;98532.75;;;34.54;20.17
22964;BME280;11648;49.306;6.934;2023-06-26T13:17:02;98533.28;;;33.90;21.27
22964;BME280;11648;49.306;6.934;2023-06-26T13:19:32;98535.44;;;34.12;21.41
22964;BME280;11648;49.306;6.934;2023-06-26T13:21:58;98533.00;;;34.01;21.55
22964;BME280;11648;49.306;6.934;2023-06-26T13:24:26;98529.94;;;34.04;21.20
22964;BME280;11648;49.306;6.934;2023-06-26T13:26:53;98543.22;;;33.99;21.17
22964;BME280;11648;49.306;6.934;2023-06-26T13:29:20;98535.34;;;33.70;21.66